createdAt,value
2017-09-19T00:00:19.127Z,13.53
2017-09-19T00:02:54.461Z,11.53
2017-09-19T00:05:29.346Z,12.50
2017-09-19T00:08:04.455Z,13.73
2017-09-19T00:10:39.590Z,12.03
2017-09-19T00:13:14.370Z,12.03
2017-09-19T00:15:49.380Z,11.63
2017-09-19T00:18:24.291Z,12.60
2017-09-19T00:20:59.083Z,15.60
2017-09-19T00:23:34.451Z,12.50
2017-09-19T00:26:09.388Z,12.87
2017-09-19T00:28:44.514Z,10.30
2017-09-19T00:31:19.359Z,14.33
2017-09-19T00:33:54.439Z,13.10
2017-09-19T00:36:29.275Z,12.90
2017-09-19T00:39:03.643Z,12.80
2017-09-19T00:41:39.021Z,12.80
2017-09-19T00:44:13.995Z,12.50
2017-09-19T00:46:49.038Z,12.90
2017-09-19T00:49:23.877Z,11.90
2017-09-19T00:51:58.171Z,12.50
2017-09-19T00:54:33.345Z,12.60
2017-09-19T00:57:08.903Z,13.20
2017-09-19T00:59:43.051Z,14.40
2017-09-19T01:02:17.451Z,13.77
2017-09-19T01:04:52.480Z,14.40
2017-09-19T01:07:27.274Z,13.97
2017-09-19T01:10:01.567Z,15.70
2017-09-19T01:12:36.347Z,13.60
2017-09-19T01:15:10.919Z,15.03
2017-09-19T01:17:45.475Z,14.57
2017-09-19T01:20:19.955Z,14.20
2017-09-19T01:22:54.731Z,14.10
2017-09-19T01:25:29.634Z,14.80
2017-09-19T01:28:04.681Z,14.47
2017-09-19T01:30:39.984Z,13.87
2017-09-19T01:33:15.068Z,13.53
2017-09-19T01:35:50.099Z,16.30
2017-09-19T01:38:25.033Z,13.60
2017-09-19T01:40:59.802Z,14.97
2017-09-19T01:43:34.811Z,14.83
2017-09-19T01:46:10.117Z,15.10
2017-09-19T01:48:45.035Z,14.00
2017-09-19T01:51:19.097Z,15.27
2017-09-19T01:53:54.409Z,15.20
2017-09-19T01:56:29.275Z,15.37
2017-09-19T01:59:04.415Z,15.27
2017-09-19T02:01:39.359Z,14.23
2017-09-19T02:04:14.547Z,14.80
2017-09-19T02:06:49.416Z,14.73
2017-09-19T02:09:24.352Z,14.80
2017-09-19T02:11:59.072Z,14.17
2017-09-19T02:14:33.907Z,14.50
2017-09-19T02:17:08.995Z,13.47
2017-09-19T02:19:43.484Z,14.20
2017-09-19T02:22:18.201Z,13.60
2017-09-19T02:24:53.436Z,13.47
2017-09-19T02:27:28.366Z,15.10
2017-09-19T02:30:03.371Z,14.60
2017-09-19T02:32:38.272Z,15.00
2017-09-19T02:35:13.298Z,12.43
2017-09-19T02:37:48.295Z,13.80
2017-09-19T02:40:23.191Z,16.23
2017-09-19T02:42:58.106Z,16.53
2017-09-19T02:45:33.038Z,14.70
2017-09-19T02:48:07.967Z,14.23
2017-09-19T02:50:42.820Z,13.73
2017-09-19T02:53:17.714Z,16.60
2017-09-19T02:55:52.608Z,14.30
2017-09-19T02:58:27.216Z,13.83
2017-09-19T03:01:02.307Z,14.90
2017-09-19T03:03:37.254Z,16.40
2017-09-19T03:06:12.320Z,16.63
2017-09-19T03:08:46.845Z,16.10
2017-09-19T03:11:22.151Z,16.10
2017-09-19T03:13:56.943Z,14.93
2017-09-19T03:16:31.762Z,15.70
2017-09-19T03:19:06.884Z,14.20
2017-09-19T03:21:41.939Z,16.87
2017-09-19T03:24:16.731Z,16.20
2017-09-19T03:26:51.639Z,16.10
2017-09-19T03:29:26.088Z,15.20
2017-09-19T03:32:00.800Z,17.30
2017-09-19T03:34:35.820Z,15.17
2017-09-19T03:37:11.083Z,15.70
2017-09-19T03:39:46.208Z,15.77
2017-09-19T03:42:21.278Z,15.53
2017-09-19T03:44:56.587Z,15.20
2017-09-19T03:47:31.772Z,15.00
2017-09-19T03:50:06.815Z,15.00
2017-09-19T03:52:41.727Z,15.97
2017-09-19T03:55:16.523Z,16.13
2017-09-19T03:57:51.639Z,16.37
2017-09-19T04:00:26.472Z,16.53
2017-09-19T04:03:01.572Z,17.00
2017-09-19T04:05:36.259Z,16.20
2017-09-19T04:08:11.142Z,14.57
2017-09-19T04:10:45.799Z,15.60
2017-09-19T04:13:20.887Z,15.77
2017-09-19T04:15:55.700Z,16.47
2017-09-19T04:18:30.908Z,17.97
2017-09-19T04:21:05.712Z,16.77
2017-09-19T04:23:40.543Z,15.00
2017-09-19T04:26:16.669Z,15.73
2017-09-19T04:28:50.816Z,15.73
2017-09-19T04:31:26.308Z,15.80
2017-09-19T04:34:00.896Z,14.43
2017-09-19T04:36:35.939Z,15.83
2017-09-19T04:39:11.110Z,16.93
2017-09-19T04:41:46.252Z,15.57
2017-09-19T04:44:20.735Z,17.27
2017-09-19T04:46:55.774Z,16.87
2017-09-19T04:49:30.950Z,16.03
2017-09-19T04:52:06.170Z,15.87
2017-09-19T04:54:41.151Z,17.17
2017-09-19T04:57:15.965Z,16.40
2017-09-19T04:59:50.646Z,16.17
2017-09-19T05:02:25.358Z,18.83
2017-09-19T05:05:00.330Z,16.73
2017-09-19T05:07:35.367Z,17.77
2017-09-19T05:10:10.375Z,17.47
2017-09-19T05:12:45.132Z,16.20
2017-09-19T05:15:20.380Z,17.27
2017-09-19T05:17:55.211Z,16.70
2017-09-19T05:20:30.262Z,17.00
2017-09-19T05:23:05.210Z,17.33
2017-09-19T05:25:40.170Z,16.33
2017-09-19T05:28:15.195Z,20.23
2017-09-19T05:30:49.963Z,62.90
2017-09-19T05:33:24.908Z,29.17
2017-09-19T05:35:59.719Z,23.50
2017-09-19T05:38:34.783Z,28.70
2017-09-19T05:41:09.540Z,58.63
2017-09-19T05:43:44.739Z,79.57
2017-09-19T05:46:19.916Z,55.87
2017-09-19T05:48:54.819Z,57.47
2017-09-19T05:51:29.663Z,41.80
2017-09-19T05:54:05.123Z,40.67
2017-09-19T05:56:39.943Z,20.27
2017-09-19T05:59:14.804Z,19.93
2017-09-19T06:01:49.803Z,18.37
2017-09-19T06:04:25.319Z,19.23
2017-09-19T06:07:00.016Z,20.73
2017-09-19T06:09:34.292Z,20.07
2017-09-19T06:12:09.339Z,19.40
2017-09-19T06:14:44.147Z,20.20
2017-09-19T06:17:18.876Z,20.50
2017-09-19T06:19:53.616Z,20.90
2017-09-19T06:22:28.558Z,22.00
2017-09-19T06:25:03.000Z,21.00
2017-09-19T06:27:38.220Z,21.50
2017-09-19T06:30:12.751Z,21.10
2017-09-19T06:32:47.367Z,21.73
2017-09-19T06:35:21.559Z,23.50
2017-09-19T06:37:56.727Z,22.00
2017-09-19T06:40:31.663Z,21.47
2017-09-19T06:43:05.979Z,22.00
2017-09-19T06:45:40.846Z,22.07
2017-09-19T06:48:15.931Z,23.10
2017-09-19T06:50:50.975Z,23.47
2017-09-19T06:53:25.807Z,25.67
2017-09-19T06:56:01.031Z,25.63
2017-09-19T06:58:36.023Z,26.87
2017-09-19T07:01:11.133Z,27.20
2017-09-19T07:03:46.360Z,27.10
2017-09-19T07:06:21.388Z,28.37
2017-09-19T07:08:56.538Z,28.57
2017-09-19T07:11:31.487Z,27.00
2017-09-19T07:14:06.003Z,29.67
2017-09-19T07:16:41.655Z,28.20
2017-09-19T07:19:16.463Z,30.20
2017-09-19T07:21:51.468Z,29.27
2017-09-19T07:24:27.293Z,26.37
2017-09-19T07:27:02.224Z,28.30
2017-09-19T07:29:37.255Z,27.60
2017-09-19T07:32:13.100Z,28.40
2017-09-19T07:34:47.769Z,28.57
2017-09-19T07:37:22.740Z,31.20
2017-09-19T07:39:57.594Z,30.33
2017-09-19T07:42:32.516Z,28.90
2017-09-19T07:45:07.125Z,31.53
2017-09-19T07:47:42.043Z,29.47
2017-09-19T07:50:17.048Z,31.30
2017-09-19T07:52:52.018Z,29.40
2017-09-19T07:55:27.011Z,30.43
2017-09-19T07:58:01.696Z,30.00
2017-09-19T08:00:36.055Z,30.17
2017-09-19T08:03:10.910Z,31.17
2017-09-19T08:05:46.043Z,30.03
2017-09-19T08:08:20.735Z,30.63
2017-09-19T08:10:55.543Z,29.13
2017-09-19T08:13:30.499Z,29.40
2017-09-19T08:16:05.788Z,29.03
2017-09-19T08:18:40.206Z,29.03
2017-09-19T08:21:15.213Z,30.10
2017-09-19T08:23:50.123Z,28.67
2017-09-19T08:26:25.542Z,30.77
2017-09-19T08:29:00.680Z,29.77
2017-09-19T08:31:36.306Z,29.30
2017-09-19T08:34:11.102Z,31.33
2017-09-19T08:36:45.923Z,27.97
2017-09-19T08:39:20.882Z,28.33
2017-09-19T08:41:55.781Z,27.87
2017-09-19T08:44:30.586Z,26.57
2017-09-19T08:47:06.186Z,27.37
2017-09-19T08:49:41.227Z,29.37
2017-09-19T08:52:15.852Z,29.90
2017-09-19T08:54:50.989Z,26.80
2017-09-19T08:57:26.383Z,25.43
2017-09-19T09:00:01.544Z,25.13
2017-09-19T09:02:36.338Z,26.70
2017-09-19T09:05:12.440Z,26.00
2017-09-19T09:07:47.175Z,25.73
2017-09-19T09:10:21.979Z,25.87
2017-09-19T09:12:57.148Z,26.43
2017-09-19T09:15:32.183Z,24.50
2017-09-19T09:18:07.116Z,24.97
2017-09-19T09:20:41.919Z,26.23
2017-09-19T09:23:16.755Z,28.40
2017-09-19T09:25:51.751Z,28.10
2017-09-19T09:28:26.747Z,28.57
2017-09-19T09:31:01.781Z,29.47
2017-09-19T09:33:36.973Z,32.00
2017-09-19T09:36:12.014Z,29.70
2017-09-19T09:38:46.915Z,26.00
2017-09-19T09:41:21.790Z,29.83
2017-09-19T09:43:56.567Z,28.47
2017-09-19T09:46:31.147Z,27.10
2017-09-19T09:49:06.173Z,26.73
2017-09-19T09:51:40.785Z,26.47
2017-09-19T09:54:15.531Z,24.80
2017-09-19T09:56:49.780Z,25.80
2017-09-19T09:59:24.807Z,23.40
2017-09-19T10:01:59.932Z,23.57
2017-09-19T10:04:34.744Z,23.63
2017-09-19T10:07:09.455Z,27.50
2017-09-19T10:09:44.853Z,24.17
2017-09-19T10:12:19.588Z,23.10
2017-09-19T10:14:54.357Z,24.00
2017-09-19T10:17:29.761Z,23.20
2017-09-19T10:20:04.347Z,24.10
2017-09-19T10:22:39.146Z,23.93
2017-09-19T10:25:14.040Z,24.70
2017-09-19T10:27:48.947Z,26.03
2017-09-19T10:30:23.623Z,23.57
2017-09-19T10:32:58.570Z,21.90
2017-09-19T10:35:33.012Z,21.50
2017-09-19T10:38:08.026Z,24.00
2017-09-19T10:40:42.910Z,22.80
2017-09-19T10:43:17.944Z,23.00
2017-09-19T10:45:52.454Z,23.00
2017-09-19T10:48:26.982Z,22.20
2017-09-19T10:51:02.504Z,22.40
2017-09-19T10:53:37.458Z,23.77
2017-09-19T10:56:12.133Z,21.93
2017-09-19T10:58:47.068Z,22.80
2017-09-19T11:01:21.819Z,21.80
2017-09-19T11:03:56.634Z,23.30
2017-09-19T11:06:31.594Z,22.80
2017-09-19T11:09:05.980Z,23.10
2017-09-19T11:11:41.021Z,20.33
2017-09-19T11:14:15.735Z,19.60
2017-09-19T11:16:50.540Z,23.37
2017-09-19T11:19:25.463Z,19.20
2017-09-19T11:22:00.372Z,19.60
2017-09-19T11:24:35.166Z,20.83
2017-09-19T11:27:10.004Z,19.20
2017-09-19T11:29:45.651Z,19.60
2017-09-19T11:32:21.191Z,19.20
2017-09-19T11:34:56.459Z,19.23
2017-09-19T11:37:31.320Z,18.20
2017-09-19T11:40:06.244Z,17.10
2017-09-19T11:42:41.395Z,18.27
2017-09-19T11:45:16.092Z,15.13
2017-09-19T11:47:51.107Z,17.03
2017-09-19T11:50:26.355Z,17.30
2017-09-19T11:53:01.452Z,15.97
2017-09-19T11:55:36.256Z,15.83
2017-09-19T11:58:11.051Z,18.20
2017-09-19T12:00:46.086Z,16.80
2017-09-19T12:03:20.806Z,16.17
2017-09-19T12:05:55.498Z,18.13
2017-09-19T12:08:30.512Z,16.17
2017-09-19T12:11:05.332Z,19.40
2017-09-19T12:13:40.135Z,19.57
2017-09-19T12:16:14.863Z,17.93
2017-09-19T12:18:49.694Z,20.30
2017-09-19T12:21:24.714Z,17.83
2017-09-19T12:23:59.606Z,18.97
2017-09-19T12:26:34.436Z,18.03
2017-09-19T12:29:09.289Z,19.20
2017-09-19T12:31:43.980Z,18.87
2017-09-19T12:34:19.015Z,19.83
2017-09-19T12:36:53.844Z,18.00
2017-09-19T12:39:28.771Z,15.83
2017-09-19T12:42:03.680Z,16.20
2017-09-19T12:44:38.578Z,14.93
2017-09-19T12:47:13.283Z,15.03
2017-09-19T12:49:51.895Z,17.97
2017-09-19T12:52:26.888Z,16.80
2017-09-19T12:55:02.144Z,17.60
2017-09-19T12:57:36.723Z,17.60
2017-09-19T13:00:11.532Z,16.00
2017-09-19T13:02:46.728Z,15.67
2017-09-19T13:05:21.435Z,16.20
2017-09-19T13:07:56.502Z,15.37
2017-09-19T13:10:30.919Z,15.20
2017-09-19T13:13:06.026Z,15.43
2017-09-19T13:15:41.639Z,15.80
2017-09-19T13:18:16.899Z,15.37
2017-09-19T13:20:51.925Z,13.77
2017-09-19T13:23:26.518Z,14.43
2017-09-19T13:26:01.518Z,12.80
2017-09-19T13:28:36.416Z,11.70
2017-09-19T13:31:22.503Z,15.30
2017-09-19T13:36:30.704Z,15.80
2017-09-19T13:39:05.803Z,14.63
2017-09-19T13:41:41.090Z,15.20
2017-09-19T13:44:15.740Z,14.07
2017-09-19T13:46:50.351Z,15.53
2017-09-19T13:49:25.442Z,15.50
2017-09-19T13:52:00.281Z,16.77
2017-09-19T13:54:34.988Z,15.40
2017-09-19T13:57:09.885Z,14.73
2017-09-19T13:59:44.607Z,16.70
2017-09-19T14:02:19.459Z,17.33
2017-09-19T14:04:54.384Z,16.00
2017-09-19T14:07:29.311Z,15.20
2017-09-19T14:10:03.783Z,15.40
2017-09-19T14:12:38.437Z,15.70
2017-09-19T14:15:13.261Z,16.03
2017-09-19T14:17:48.194Z,16.53
2017-09-19T14:20:23.081Z,16.97
2017-09-19T14:22:57.863Z,13.87
2017-09-19T14:25:32.659Z,15.00
2017-09-19T14:28:07.571Z,16.00
2017-09-19T14:30:42.481Z,14.70
2017-09-19T14:33:17.362Z,13.87
2017-09-19T14:35:52.275Z,15.13
2017-09-19T14:38:27.327Z,14.43
2017-09-19T14:41:02.435Z,13.97
2017-09-19T14:43:37.463Z,12.17
2017-09-19T14:46:12.392Z,12.70
2017-09-19T14:48:47.192Z,12.67
2017-09-19T14:51:22.200Z,10.37
2017-09-19T14:53:56.975Z,11.57
2017-09-19T14:56:31.813Z,9.13
2017-09-19T14:59:07.731Z,10.20
2017-09-19T15:01:42.574Z,7.47
2017-09-19T15:04:17.206Z,6.30
2017-09-19T15:06:52.211Z,6.13
2017-09-19T15:09:26.919Z,7.63
2017-09-19T15:12:01.847Z,10.30
2017-09-19T15:14:36.616Z,10.37
2017-09-19T15:17:11.812Z,12.77
2017-09-19T15:19:46.955Z,10.43
2017-09-19T15:22:22.449Z,9.30
2017-09-19T15:24:57.348Z,10.03
2017-09-19T15:27:32.062Z,10.57
2017-09-19T15:30:06.928Z,9.83
2017-09-19T15:32:41.728Z,8.47
2017-09-19T15:35:16.282Z,8.53
2017-09-19T15:37:52.210Z,7.60
2017-09-19T15:40:26.907Z,8.80
2017-09-19T15:43:01.415Z,9.30
2017-09-19T15:45:36.120Z,8.50
2017-09-19T15:48:11.056Z,9.13
2017-09-19T15:50:45.959Z,9.60
2017-09-19T15:53:20.722Z,9.00
2017-09-19T15:55:55.515Z,8.77
2017-09-19T15:58:30.207Z,8.60
2017-09-19T16:01:04.596Z,9.53
2017-09-19T16:03:40.620Z,9.00
2017-09-19T16:06:15.499Z,9.07
2017-09-19T16:08:50.379Z,8.90
2017-09-19T16:11:25.260Z,8.30
2017-09-19T16:14:00.098Z,8.20
2017-09-19T16:16:34.517Z,9.00
2017-09-19T16:19:09.210Z,7.77
2017-09-19T16:21:43.970Z,8.90
2017-09-19T16:24:18.591Z,9.83
2017-09-19T16:26:53.320Z,9.97
2017-09-19T16:29:28.103Z,9.00
2017-09-19T16:32:03.147Z,9.50
2017-09-19T16:34:37.755Z,9.47
2017-09-19T16:37:12.598Z,10.47
2017-09-19T16:39:47.484Z,8.70
2017-09-19T16:42:22.200Z,9.97
2017-09-19T16:44:56.910Z,9.43
2017-09-19T16:47:31.779Z,9.80
2017-09-19T16:50:06.659Z,9.90
2017-09-19T16:52:41.466Z,10.67
2017-09-19T16:55:16.087Z,9.27
2017-09-19T16:57:50.880Z,10.60
2017-09-19T17:00:25.519Z,11.00
2017-09-19T17:03:00.198Z,9.90
2017-09-19T17:05:34.952Z,11.20
2017-09-19T17:08:09.832Z,11.10
2017-09-19T17:10:44.642Z,11.23
2017-09-19T17:13:19.380Z,11.73
2017-09-19T17:15:54.203Z,11.63
2017-09-19T17:18:29.141Z,12.10
2017-09-19T17:21:03.794Z,12.30
2017-09-19T17:23:38.358Z,10.70
2017-09-19T17:26:13.556Z,11.60
2017-09-19T17:28:48.580Z,13.07
2017-09-19T17:31:23.323Z,13.63
2017-09-19T17:33:58.929Z,11.80
2017-09-19T17:36:34.186Z,11.47
2017-09-19T17:39:08.663Z,12.37
2017-09-19T17:41:43.697Z,11.60
2017-09-19T17:44:18.719Z,11.17
2017-09-19T17:46:53.395Z,10.63
2017-09-19T17:49:28.550Z,12.17
2017-09-19T17:52:03.590Z,13.10
2017-09-19T17:54:39.229Z,16.47
2017-09-19T17:57:13.776Z,13.57
2017-09-19T17:59:48.666Z,15.80
2017-09-19T18:02:23.451Z,23.47
2017-09-19T18:04:58.204Z,26.60
2017-09-19T18:07:33.003Z,29.67
2017-09-19T18:10:07.716Z,18.07
2017-09-19T18:12:42.802Z,17.87
2017-09-19T18:15:17.692Z,13.10
2017-09-19T18:17:52.824Z,12.27
2017-09-19T18:20:27.710Z,12.63
2017-09-19T18:23:02.574Z,11.63
2017-09-19T18:25:38.555Z,12.40
2017-09-19T18:28:13.344Z,12.53
2017-09-19T18:30:48.050Z,12.47
2017-09-19T18:33:22.705Z,12.03
2017-09-19T18:35:57.355Z,12.20
2017-09-19T18:38:32.586Z,12.10
2017-09-19T18:41:12.403Z,11.77
2017-09-19T18:43:47.316Z,11.70
2017-09-19T18:46:21.979Z,10.83
2017-09-19T18:48:56.959Z,11.60
2017-09-19T18:51:31.887Z,11.50
2017-09-19T18:54:06.847Z,11.73
2017-09-19T18:56:41.688Z,10.67
2017-09-19T18:59:16.590Z,12.20
2017-09-19T19:01:51.585Z,11.33
2017-09-19T19:04:26.429Z,12.03
2017-09-19T19:07:02.411Z,12.20
2017-09-19T19:09:37.219Z,13.50
2017-09-19T19:12:12.135Z,12.53
2017-09-19T19:14:46.977Z,11.90
2017-09-19T19:17:21.824Z,11.60
2017-09-19T19:19:56.755Z,10.50
2017-09-19T19:22:31.743Z,10.63
2017-09-19T19:28:36.674Z,10.80
2017-09-19T19:31:12.967Z,9.83
2017-09-19T19:33:47.830Z,11.27
2017-09-19T19:36:22.849Z,8.03
2017-09-19T19:38:57.441Z,8.80
2017-09-19T19:41:32.386Z,7.53
2017-09-19T19:44:07.395Z,7.70
2017-09-19T19:46:42.329Z,6.60
2017-09-19T19:49:17.705Z,6.63
2017-09-19T19:51:52.277Z,9.00
2017-09-19T19:54:27.281Z,7.57
2017-09-19T19:57:02.499Z,8.70
2017-09-19T19:59:37.260Z,8.77
2017-09-19T20:02:12.030Z,9.20
2017-09-19T20:04:46.743Z,10.27
2017-09-19T20:07:21.384Z,10.70
2017-09-19T20:09:56.482Z,10.50
2017-09-19T20:12:31.439Z,9.97
2017-09-19T20:15:06.267Z,10.23
2017-09-19T20:17:41.466Z,11.33
2017-09-19T20:20:16.395Z,11.13
2017-09-19T20:22:51.370Z,10.60
2017-09-19T20:25:26.293Z,11.83
2017-09-19T20:28:01.036Z,10.27
2017-09-19T20:30:35.954Z,11.83
2017-09-19T20:33:10.875Z,11.87
2017-09-19T20:35:45.773Z,12.87
2017-09-19T20:38:20.749Z,11.53
2017-09-19T20:40:55.712Z,12.13
2017-09-19T20:43:30.745Z,12.63
2017-09-19T20:46:05.684Z,11.60
2017-09-19T20:48:40.762Z,11.23
2017-09-19T20:51:15.754Z,11.60
2017-09-19T20:53:50.775Z,12.13
2017-09-19T20:56:25.739Z,11.20
2017-09-19T20:59:00.625Z,11.47
2017-09-19T21:01:37.431Z,11.17
2017-09-19T21:04:18.091Z,11.83
2017-09-19T21:06:58.745Z,12.80
2017-09-19T21:09:39.462Z,11.60
2017-09-19T21:12:20.236Z,11.87
2017-09-19T21:15:00.867Z,12.70
2017-09-19T21:17:41.621Z,13.80
2017-09-19T21:20:15.350Z,14.10
2017-09-19T21:22:49.778Z,14.03
2017-09-19T21:25:24.784Z,13.23
2017-09-19T21:27:59.782Z,13.47
2017-09-19T21:30:35.075Z,14.33
2017-09-19T21:33:10.074Z,15.60
2017-09-19T21:35:45.123Z,13.40
2017-09-19T21:38:20.049Z,15.43
2017-09-19T21:40:55.044Z,15.10
2017-09-19T21:43:29.851Z,16.57
2017-09-19T21:46:04.780Z,16.57
2017-09-19T21:48:39.439Z,18.37
2017-09-19T21:51:14.777Z,19.50
2017-09-19T21:53:50.091Z,18.63
2017-09-19T21:56:25.671Z,18.57
2017-09-19T21:59:00.379Z,20.70
2017-09-19T22:01:34.944Z,21.33
2017-09-19T22:04:09.773Z,21.20
2017-09-19T22:06:44.998Z,21.10
2017-09-19T22:09:19.915Z,22.07
2017-09-19T22:11:55.001Z,21.67
2017-09-19T22:14:29.894Z,21.57
2017-09-19T22:17:04.749Z,21.37
2017-09-19T22:19:39.606Z,21.90
2017-09-19T22:22:14.843Z,23.00
2017-09-19T22:24:49.562Z,23.43
2017-09-19T22:27:24.308Z,22.30
2017-09-19T22:29:59.317Z,21.57
2017-09-19T22:32:34.306Z,22.60
2017-09-19T22:35:09.305Z,22.17
2017-09-19T22:37:44.246Z,22.23
2017-09-19T22:40:20.059Z,21.83
2017-09-19T22:42:54.890Z,22.13
2017-09-19T22:45:29.905Z,22.10
2017-09-19T22:48:04.675Z,22.67
2017-09-19T22:50:39.500Z,22.93
2017-09-19T22:53:15.074Z,21.87
2017-09-19T22:55:49.715Z,21.33
2017-09-19T22:58:24.415Z,22.40
2017-09-19T23:00:59.023Z,20.80
2017-09-19T23:03:33.949Z,21.80
2017-09-19T23:06:08.935Z,21.47
2017-09-19T23:08:44.013Z,23.00
2017-09-19T23:11:19.024Z,21.70
2017-09-19T23:13:53.631Z,23.13
2017-09-19T23:16:28.261Z,23.27
2017-09-19T23:19:03.223Z,22.80
2017-09-19T23:21:38.118Z,23.53
2017-09-19T23:24:12.916Z,22.73
2017-09-19T23:26:47.696Z,23.80
2017-09-19T23:29:22.411Z,25.07
2017-09-19T23:31:57.255Z,24.13
2017-09-19T23:34:31.467Z,25.10
2017-09-19T23:37:05.881Z,25.30
2017-09-19T23:39:40.672Z,25.13
2017-09-19T23:42:15.739Z,23.17
2017-09-19T23:44:50.662Z,22.33
2017-09-19T23:47:25.363Z,23.60
2017-09-19T23:50:00.281Z,23.23
2017-09-19T23:52:35.503Z,23.10
2017-09-19T23:55:10.343Z,22.77
2017-09-19T23:57:45.449Z,23.20
